sensor_id;sensor_type;location;lat;lon;timestamp;pressure;altitude;pressure_sealevel;temperature;humidity
39937;BME280;27803;42.740;23.340;2023-12-22T00:01:40;94063.53;;;-0.01;100.00
39937;BME280;27803;42.740;23.340;2023-12-22T00:04:05;94022.78;;;-0.12;100.00
39937;BME280;27803;42.740;23.340;2023-12-22T00:06:32;94058.28;;;0.15;100.00
39937;BME280;27803;42.740;23.340;2023-12-22T00:08:58;94018.88;;;0.00;100.00
39937;BME280;27803;42.740;23.340;2023-12-22T00:11:24;94056.16;;;0.27;100.00
39937;BME280;27803;42.740;23.340;2023-12-22T00:13:49;94044.06;;;0.36;100.00
39937;BME280;27803;42.740;23.340;2023-12-22T00:16:15;94013.28;;;0.19;100.00
39937;BME280;27803;42.740;23.340;2023-12-22T00:18:41;94021.16;;;0.49;100.00
39937;BME280;27803;42.740;23.340;2023-12-22T00:21:13;94021.38;;;0.70;100.00
39937;BME280;27803;42.740;23.340;2023-12-22T00:23:38;94024.28;;;0.67;100.00
39937;BME280;27803;42.740;23.340;2023-12-22T00:26:05;94026.78;;;0.75;100.00
39937;BME280;27803;42.740;23.340;2023-12-22T00:28:30;94029.38;;;0.75;100.00
39937;BME280;27803;42.740;23.340;2023-12-22T00:30:59;94006.38;;;0.74;100.00
39937;BME280;27803;42.740;23.340;2023-12-22T00:33:25;94000.72;;;0.78;100.00
39937;BME280;27803;42.740;23.340;2023-12-22T00:35:51;93998.78;;;0.80;100.00
39937;BME280;27803;42.740;23.340;2023-12-22T00:38:17;94003.81;;;0.74;100.00
39937;BME280;27803;42.740;23.340;2023-12-22T00:40:43;94012.69;;;0.71;100.00
39937;BME280;27803;42.740;23.340;2023-12-22T00:43:08;93970.38;;;0.51;100.00
39937;BME280;27803;42.740;23.340;2023-12-22T00:45:34;94008.56;;;0.62;100.00
39937;BME280;27803;42.740;23.340;2023-12-22T00:48:00;94028.34;;;0.61;100.00
39937;BME280;27803;42.740;23.340;2023-12-22T00:50:25;94014.50;;;0.62;100.00
39937;BME280;27803;42.740;23.340;2023-12-22T00:52:51;94000.09;;;0.53;100.00
39937;BME280;27803;42.740;23.340;2023-12-22T00:55:16;93966.69;;;0.22;100.00
39937;BME280;27803;42.740;23.340;2023-12-22T00:57:42;93968.75;;;0.27;100.00
39937;BME280;27803;42.740;23.340;2023-12-22T01:00:08;94000.59;;;0.49;100.00
39937;BME280;27803;42.740;23.340;2023-12-22T01:02:37;93997.41;;;0.47;100.00
39937;BME280;27803;42.740;23.340;2023-12-22T01:05:03;93998.03;;;0.49;100.00
39937;BME280;27803;42.740;23.340;2023-12-22T01:07:29;94016.41;;;0.38;100.00
39937;BME280;27803;42.740;23.340;2023-12-22T01:09:55;93988.19;;;0.29;100.00
39937;BME280;27803;42.740;23.340;2023-12-22T01:12:21;93966.69;;;0.22;100.00
39937;BME280;27803;42.740;23.340;2023-12-22T01:14:47;93993.22;;;0.46;100.00
39937;BME280;27803;42.740;23.340;2023-12-22T01:17:14;93977.47;;;0.49;100.00
39937;BME280;27803;42.740;23.340;2023-12-22T01:19:40;93980.94;;;0.56;100.00
39937;BME280;27803;42.740;23.340;2023-12-22T01:22:05;93941.19;;;0.44;100.00
39937;BME280;27803;42.740;23.340;2023-12-22T01:24:31;93978.03;;;0.59;100.00
39937;BME280;27803;42.740;23.340;2023-12-22T01:26:57;93943.13;;;0.42;100.00
39937;BME280;27803;42.740;23.340;2023-12-22T01:29:22;93966.16;;;0.58;100.00
39937;BME280;27803;42.740;23.340;2023-12-22T01:31:48;93964.19;;;0.60;100.00
39937;BME280;27803;42.740;23.340;2023-12-22T01:34:13;93944.53;;;0.67;100.00
39937;BME280;27803;42.740;23.340;2023-12-22T01:36:38;93958.25;;;0.82;100.00
39937;BME280;27803;42.740;23.340;2023-12-22T01:39:04;93943.38;;;0.92;100.00
39937;BME280;27803;42.740;23.340;2023-12-22T01:41:29;93958.75;;;1.01;100.00
39937;BME280;27803;42.740;23.340;2023-12-22T01:43:55;93938.78;;;1.03;100.00
39937;BME280;27803;42.740;23.340;2023-12-22T01:46:20;93904.16;;;0.90;100.00
39937;BME280;27803;42.740;23.340;2023-12-22T01:48:46;93943.31;;;1.15;100.00
39937;BME280;27803;42.740;23.340;2023-12-22T01:51:12;93946.44;;;1.11;100.00
39937;BME280;27803;42.740;23.340;2023-12-22T01:53:37;93925.09;;;0.87;100.00
39937;BME280;27803;42.740;23.340;2023-12-22T01:56:03;93935.09;;;0.82;100.00
39937;BME280;27803;42.740;23.340;2023-12-22T01:58:30;93944.41;;;0.83;100.00
39937;BME280;27803;42.740;23.340;2023-12-22T02:00:58;93941.28;;;0.73;100.00
39937;BME280;27803;42.740;23.340;2023-12-22T02:03:23;93942.00;;;0.82;100.00
39937;BME280;27803;42.740;23.340;2023-12-22T02:05:50;93946.69;;;0.78;100.00
39937;BME280;27803;42.740;23.340;2023-12-22T02:08:18;93940.75;;;0.78;100.00
39937;BME280;27803;42.740;23.340;2023-12-22T02:10:43;93940.66;;;0.71;100.00
39937;BME280;27803;42.740;23.340;2023-12-22T02:13:10;93940.66;;;0.71;100.00
39937;BME280;27803;42.740;23.340;2023-12-22T02:15:36;93904.91;;;0.39;100.00
39937;BME280;27803;42.740;23.340;2023-12-22T02:18:07;93904.66;;;0.48;100.00
39937;BME280;27803;42.740;23.340;2023-12-22T02:20:34;93918.66;;;0.46;100.00
39937;BME280;27803;42.740;23.340;2023-12-22T02:23:00;93931.75;;;0.59;100.00
39937;BME280;27803;42.740;23.340;2023-12-22T02:25:25;93891.41;;;0.37;100.00
39937;BME280;27803;42.740;23.340;2023-12-22T02:27:54;93947.63;;;0.62;100.00
39937;BME280;27803;42.740;23.340;2023-12-22T02:30:46;93924.13;;;0.65;100.00
39937;BME280;27803;42.740;23.340;2023-12-22T02:33:15;93931.47;;;0.54;100.00
39937;BME280;27803;42.740;23.340;2023-12-22T02:35:42;93890.97;;;0.33;100.00
39937;BME280;27803;42.740;23.340;2023-12-22T02:38:09;93911.84;;;0.53;100.00
39937;BME280;27803;42.740;23.340;2023-12-22T02:40:36;93887.81;;;0.46;100.00
39937;BME280;27803;42.740;23.340;2023-12-22T02:43:03;93914.84;;;0.79;100.00
39937;BME280;27803;42.740;23.340;2023-12-22T02:45:30;93908.03;;;0.86;100.00
39937;BME280;27803;42.740;23.340;2023-12-22T02:47:55;93905.41;;;0.94;100.00
39937;BME280;27803;42.740;23.340;2023-12-22T02:50:20;93873.44;;;0.89;100.00
39937;BME280;27803;42.740;23.340;2023-12-22T02:52:46;93900.09;;;1.11;100.00
39937;BME280;27803;42.740;23.340;2023-12-22T02:55:11;93896.19;;;1.15;100.00
39937;BME280;27803;42.740;23.340;2023-12-22T02:57:37;93882.84;;;0.96;100.00
39937;BME280;27803;42.740;23.340;2023-12-22T03:00:03;93904.69;;;1.01;100.00
39937;BME280;27803;42.740;23.340;2023-12-22T03:02:28;93903.16;;;0.91;100.00
39937;BME280;27803;42.740;23.340;2023-12-22T03:04:53;93874.63;;;0.63;100.00
39937;BME280;27803;42.740;23.340;2023-12-22T03:07:19;93910.00;;;0.84;100.00
39937;BME280;27803;42.740;23.340;2023-12-22T03:09:44;93895.59;;;0.75;100.00
39937;BME280;27803;42.740;23.340;2023-12-22T03:12:10;93898.09;;;0.83;100.00
39937;BME280;27803;42.740;23.340;2023-12-22T03:14:36;93893.59;;;0.85;100.00
39937;BME280;27803;42.740;23.340;2023-12-22T03:17:03;93901.28;;;0.85;100.00
39937;BME280;27803;42.740;23.340;2023-12-22T03:19:29;93880.00;;;0.91;100.00
39937;BME280;27803;42.740;23.340;2023-12-22T03:21:55;93899.47;;;1.09;100.00
39937;BME280;27803;42.740;23.340;2023-12-22T03:24:22;93902.94;;;1.16;100.00
39937;BME280;27803;42.740;23.340;2023-12-22T03:26:48;93899.75;;;1.14;100.00
39937;BME280;27803;42.740;23.340;2023-12-22T03:29:14;93900.97;;;1.18;100.00
39937;BME280;27803;42.740;23.340;2023-12-22T03:31:39;93907.38;;;1.22;100.00
39937;BME280;27803;42.740;23.340;2023-12-22T03:34:05;93890.34;;;1.21;100.00
39937;BME280;27803;42.740;23.340;2023-12-22T03:36:30;93896.38;;;1.28;100.00
39937;BME280;27803;42.740;23.340;2023-12-22T03:38:56;93880.94;;;1.28;100.00
39937;BME280;27803;42.740;23.340;2023-12-22T03:41:21;93876.22;;;1.32;100.00
39937;BME280;27803;42.740;23.340;2023-12-22T03:43:46;93886.59;;;1.38;100.00
39937;BME280;27803;42.740;23.340;2023-12-22T03:46:12;93876.56;;;1.43;100.00
39937;BME280;27803;42.740;23.340;2023-12-22T03:48:37;93858.38;;;1.30;100.00
39937;BME280;27803;42.740;23.340;2023-12-22T03:51:03;93887.56;;;1.52;100.00
39937;BME280;27803;42.740;23.340;2023-12-22T03:53:28;93846.47;;;1.29;100.00
39937;BME280;27803;42.740;23.340;2023-12-22T03:55:54;93865.66;;;1.41;100.00
39937;BME280;27803;42.740;23.340;2023-12-22T03:58:20;93848.50;;;1.34;100.00
39937;BME280;27803;42.740;23.340;2023-12-22T04:00:45;93893.53;;;1.52;100.00
39937;BME280;27803;42.740;23.340;2023-12-22T04:03:10;93879.66;;;1.53;100.00
39937;BME280;27803;42.740;23.340;2023-12-22T04:05:36;93852.22;;;1.46;100.00
39937;BME280;27803;42.740;23.340;2023-12-22T04:08:01;93888.53;;;1.66;100.00
39937;BME280;27803;42.740;23.340;2023-12-22T04:10:27;93866.50;;;1.63;100.00
39937;BME280;27803;42.740;23.340;2023-12-22T04:12:52;93878.00;;;1.82;100.00
39937;BME280;27803;42.740;23.340;2023-12-22T04:15:17;93852.09;;;1.69;100.00
39937;BME280;27803;42.740;23.340;2023-12-22T04:17:43;93891.56;;;1.90;100.00
39937;BME280;27803;42.740;23.340;2023-12-22T04:20:08;93879.66;;;1.89;100.00
39937;BME280;27803;42.740;23.340;2023-12-22T04:22:34;93881.25;;;1.90;100.00
39937;BME280;27803;42.740;23.340;2023-12-22T04:24:59;93873.78;;;1.95;100.00
39937;BME280;27803;42.740;23.340;2023-12-22T04:27:24;93850.25;;;1.84;100.00
39937;BME280;27803;42.740;23.340;2023-12-22T04:29:50;93876.88;;;2.06;100.00
39937;BME280;27803;42.740;23.340;2023-12-22T04:32:15;93868.69;;;2.02;100.00
39937;BME280;27803;42.740;23.340;2023-12-22T04:34:41;93869.13;;;2.06;100.00
39937;BME280;27803;42.740;23.340;2023-12-22T04:37:09;93838.13;;;1.99;100.00
39937;BME280;27803;42.740;23.340;2023-12-22T04:39:40;93845.63;;;2.15;100.00
39937;BME280;27803;42.740;23.340;2023-12-22T04:42:07;93863.31;;;2.18;100.00
39937;BME280;27803;42.740;23.340;2023-12-22T04:44:34;93855.09;;;2.29;100.00
39937;BME280;27803;42.740;23.340;2023-12-22T04:47:01;93828.94;;;2.11;100.00
39937;BME280;27803;42.740;23.340;2023-12-22T04:49:28;93848.44;;;2.42;100.00
39937;BME280;27803;42.740;23.340;2023-12-22T04:51:54;93862.69;;;2.38;100.00
39937;BME280;27803;42.740;23.340;2023-12-22T04:54:20;93853.97;;;2.39;100.00
39937;BME280;27803;42.740;23.340;2023-12-22T04:56:45;93823.34;;;2.29;100.00
39937;BME280;27803;42.740;23.340;2023-12-22T04:59:11;93866.00;;;2.53;100.00
39937;BME280;27803;42.740;23.340;2023-12-22T05:01:36;93816.66;;;2.35;100.00
39937;BME280;27803;42.740;23.340;2023-12-22T05:04:01;93811.97;;;2.45;100.00
39937;BME280;27803;42.740;23.340;2023-12-22T05:06:27;93854.19;;;2.65;100.00
39937;BME280;27803;42.740;23.340;2023-12-22T05:08:54;93810.78;;;2.47;100.00
39937;BME280;27803;42.740;23.340;2023-12-22T05:11:19;93833.56;;;2.65;100.00
39937;BME280;27803;42.740;23.340;2023-12-22T05:13:45;93836.94;;;2.66;100.00
39937;BME280;27803;42.740;23.340;2023-12-22T05:16:10;93840.25;;;2.59;100.00
39937;BME280;27803;42.740;23.340;2023-12-22T05:18:36;93856.13;;;2.56;100.00
39937;BME280;27803;42.740;23.340;2023-12-22T05:21:01;93845.78;;;2.56;100.00
39937;BME280;27803;42.740;23.340;2023-12-22T05:23:27;93850.03;;;2.43;100.00
39937;BME280;27803;42.740;23.340;2023-12-22T05:25:52;93819.72;;;2.23;100.00
39937;BME280;27803;42.740;23.340;2023-12-22T05:28:20;93819.16;;;2.28;100.00
39937;BME280;27803;42.740;23.340;2023-12-22T05:30:46;93859.25;;;2.52;100.00
39937;BME280;27803;42.740;23.340;2023-12-22T05:33:12;93848.94;;;2.52;100.00
39937;BME280;27803;42.740;23.340;2023-12-22T05:35:38;93840.22;;;2.53;100.00
39937;BME280;27803;42.740;23.340;2023-12-22T05:38:03;93815.06;;;2.34;100.00
39937;BME280;27803;42.740;23.340;2023-12-22T05:40:29;93847.59;;;2.35;100.00
39937;BME280;27803;42.740;23.340;2023-12-22T05:42:55;93818.38;;;2.06;100.00
39937;BME280;27803;42.740;23.340;2023-12-22T05:45:20;93823.66;;;1.98;100.00
39937;BME280;27803;42.740;23.340;2023-12-22T05:47:45;93821.91;;;1.84;100.00
39937;BME280;27803;42.740;23.340;2023-12-22T05:50:11;93852.00;;;1.98;100.00
39937;BME280;27803;42.740;23.340;2023-12-22T05:52:37;93818.91;;;1.80;100.00
39937;BME280;27803;42.740;23.340;2023-12-22T05:55:03;93845.81;;;2.14;100.00
39937;BME280;27803;42.740;23.340;2023-12-22T05:57:28;93833.53;;;2.16;100.00
39937;BME280;27803;42.740;23.340;2023-12-22T05:59:54;93829.53;;;2.13;100.00
39937;BME280;27803;42.740;23.340;2023-12-22T06:02:19;93834.94;;;2.18;100.00
39937;BME280;27803;42.740;23.340;2023-12-22T06:04:45;93834.22;;;2.24;100.00
39937;BME280;27803;42.740;23.340;2023-12-22T06:07:10;93809.78;;;2.20;100.00
39937;BME280;27803;42.740;23.340;2023-12-22T06:09:36;93855.34;;;2.35;100.00
39937;BME280;27803;42.740;23.340;2023-12-22T06:12:02;93809.09;;;2.12;100.00
39937;BME280;27803;42.740;23.340;2023-12-22T06:14:27;93799.47;;;2.20;100.00
39937;BME280;27803;42.740;23.340;2023-12-22T06:16:53;93830.25;;;2.50;100.00
39937;BME280;27803;42.740;23.340;2023-12-22T06:19:19;93853.72;;;2.55;100.00
39937;BME280;27803;42.740;23.340;2023-12-22T06:21:44;93833.44;;;2.52;100.00
39937;BME280;27803;42.740;23.340;2023-12-22T06:24:09;93840.69;;;2.63;100.00
39937;BME280;27803;42.740;23.340;2023-12-22T06:26:35;93830.78;;;2.67;100.00
39937;BME280;27803;42.740;23.340;2023-12-22T06:29:00;93832.06;;;2.77;100.00
39937;BME280;27803;42.740;23.340;2023-12-22T06:31:26;93842.38;;;2.77;100.00
39937;BME280;27803;42.740;23.340;2023-12-22T06:33:52;93846.19;;;2.81;100.00
39937;BME280;27803;42.740;23.340;2023-12-22T06:36:22;93831.78;;;2.93;100.00
39937;BME280;27803;42.740;23.340;2023-12-22T06:38:51;93855.53;;;2.82;100.00
39937;BME280;27803;42.740;23.340;2023-12-22T06:41:28;93831.69;;;2.80;100.00
39937;BME280;27803;42.740;23.340;2023-12-22T06:43:55;93864.75;;;2.70;100.00
39937;BME280;27803;42.740;23.340;2023-12-22T06:46:22;93867.66;;;2.60;100.00
39937;BME280;27803;42.740;23.340;2023-12-22T06:48:48;93851.75;;;2.57;100.00
39937;BME280;27803;42.740;23.340;2023-12-22T06:51:22;93831.81;;;2.44;100.00
39937;BME280;27803;42.740;23.340;2023-12-22T06:53:48;93838.88;;;2.36;100.00
39937;BME280;27803;42.740;23.340;2023-12-22T06:56:24;93853.72;;;2.55;100.00
39937;BME280;27803;42.740;23.340;2023-12-22T06:58:51;93827.06;;;2.48;100.00
39937;BME280;27803;42.740;23.340;2023-12-22T07:01:31;93854.69;;;2.75;100.00
39937;BME280;27803;42.740;23.340;2023-12-22T07:03:57;93847.44;;;2.64;100.00
39937;BME280;27803;42.740;23.340;2023-12-22T07:06:26;93849.94;;;2.79;100.00
39937;BME280;27803;42.740;23.340;2023-12-22T07:11:37;93856.84;;;3.00;100.00
39937;BME280;27803;42.740;23.340;2023-12-22T07:14:02;93842.56;;;3.04;100.00
39937;BME280;27803;42.740;23.340;2023-12-22T07:16:28;93860.94;;;3.22;100.00
39937;BME280;27803;42.740;23.340;2023-12-22T07:18:53;93845.81;;;3.19;100.00
39937;BME280;27803;42.740;23.340;2023-12-22T07:21:18;93860.19;;;3.28;100.00
39937;BME280;27803;42.740;23.340;2023-12-22T07:23:44;93882.06;;;3.32;100.00
39937;BME280;27803;42.740;23.340;2023-12-22T07:26:10;93861.03;;;3.35;100.00
39937;BME280;27803;42.740;23.340;2023-12-22T07:28:35;93873.00;;;3.49;100.00
39937;BME280;27803;42.740;23.340;2023-12-22T07:31:01;93865.06;;;3.57;100.00
39937;BME280;27803;42.740;23.340;2023-12-22T07:33:26;93869.44;;;3.57;100.00
39937;BME280;27803;42.740;23.340;2023-12-22T07:35:52;93835.41;;;3.40;100.00
39937;BME280;27803;42.740;23.340;2023-12-22T07:38:17;93875.84;;;3.68;100.00
39937;BME280;27803;42.740;23.340;2023-12-22T07:40:42;93874.69;;;3.77;100.00
39937;BME280;27803;42.740;23.340;2023-12-22T07:43:08;93871.53;;;3.81;100.00
39937;BME280;27803;42.740;23.340;2023-12-22T07:45:34;93882.28;;;3.85;100.00
39937;BME280;27803;42.740;23.340;2023-12-22T07:47:59;93871.56;;;3.88;100.00
39937;BME280;27803;42.740;23.340;2023-12-22T07:50:25;93874.75;;;3.90;100.00
39937;BME280;27803;42.740;23.340;2023-12-22T07:52:50;93894.66;;;3.96;100.00
39937;BME280;27803;42.740;23.340;2023-12-22T07:55:15;93881.94;;;4.01;100.00
39937;BME280;27803;42.740;23.340;2023-12-22T07:57:41;93920.13;;;3.99;100.00
39937;BME280;27803;42.740;23.340;2023-12-22T08:00:07;93918.94;;;3.95;100.00
39937;BME280;27803;42.740;23.340;2023-12-22T08:02:34;93922.28;;;3.89;100.00
39937;BME280;27803;42.740;23.340;2023-12-22T08:05:00;93918.03;;;3.75;100.00
39937;BME280;27803;42.740;23.340;2023-12-22T08:07:25;93881.72;;;3.48;100.00
39937;BME280;27803;42.740;23.340;2023-12-22T08:09:50;93923.53;;;3.58;100.00
39937;BME280;27803;42.740;23.340;2023-12-22T08:12:17;93923.53;;;3.58;100.00
39937;BME280;27803;42.740;23.340;2023-12-22T08:14:42;93925.47;;;3.43;100.00
39937;BME280;27803;42.740;23.340;2023-12-22T08:17:08;93918.88;;;3.47;100.00
39937;BME280;27803;42.740;23.340;2023-12-22T08:19:36;93894.84;;;3.47;100.00
39937;BME280;27803;42.740;23.340;2023-12-22T08:22:02;93928.78;;;3.72;100.00
39937;BME280;27803;42.740;23.340;2023-12-22T08:24:27;93924.03;;;3.82;100.00
39937;BME280;27803;42.740;23.340;2023-12-22T08:26:52;93921.53;;;3.95;100.00
39937;BME280;27803;42.740;23.340;2023-12-22T08:29:18;93927.28;;;3.97;100.00
39937;BME280;27803;42.740;23.340;2023-12-22T08:31:44;93924.53;;;4.05;100.00
39937;BME280;27803;42.740;23.340;2023-12-22T08:34:10;93899.03;;;3.89;100.00
39937;BME280;27803;42.740;23.340;2023-12-22T08:36:35;93902.00;;;3.86;100.00
39937;BME280;27803;42.740;23.340;2023-12-22T08:39:01;93935.09;;;4.10;100.00
39937;BME280;27803;42.740;23.340;2023-12-22T08:41:26;93929.53;;;4.07;100.00
39937;BME280;27803;42.740;23.340;2023-12-22T08:43:52;93897.06;;;3.98;100.00
39937;BME280;27803;42.740;23.340;2023-12-22T08:46:18;93887.31;;;4.00;100.00
39937;BME280;27803;42.740;23.340;2023-12-22T08:48:43;93932.75;;;4.22;100.00
39937;BME280;27803;42.740;23.340;2023-12-22T08:51:08;93931.41;;;4.39;100.00
39937;BME280;27803;42.740;23.340;2023-12-22T08:53:34;93936.78;;;4.38;100.00
39937;BME280;27803;42.740;23.340;2023-12-22T08:56:03;93924.66;;;4.45;100.00
39937;BME280;27803;42.740;23.340;2023-12-22T08:58:29;93943.59;;;4.52;100.00
39937;BME280;27803;42.740;23.340;2023-12-22T09:00:54;93938.25;;;4.60;100.00
39937;BME280;27803;42.740;23.340;2023-12-22T09:03:19;93892.41;;;4.41;100.00
39937;BME280;27803;42.740;23.340;2023-12-22T09:05:45;93935.47;;;4.68;100.00
39937;BME280;27803;42.740;23.340;2023-12-22T09:08:12;93942.66;;;4.79;100.00
39937;BME280;27803;42.740;23.340;2023-12-22T09:10:37;93919.94;;;4.68;100.00
39937;BME280;27803;42.740;23.340;2023-12-22T09:13:03;93913.75;;;4.69;100.00
39937;BME280;27803;42.740;23.340;2023-12-22T09:15:28;93932.28;;;4.79;100.00
39937;BME280;27803;42.740;23.340;2023-12-22T09:17:54;93949.00;;;4.70;100.00
39937;BME280;27803;42.740;23.340;2023-12-22T09:20:21;93909.16;;;4.58;100.00
39937;BME280;27803;42.740;23.340;2023-12-22T09:22:46;93942.22;;;4.63;100.00
39937;BME280;27803;42.740;23.340;2023-12-22T09:25:12;93935.47;;;4.68;100.00
39937;BME280;27803;42.740;23.340;2023-12-22T09:27:37;93931.50;;;4.72;100.00
39937;BME280;27803;42.740;23.340;2023-12-22T09:30:03;93935.88;;;4.72;100.00
39937;BME280;27803;42.740;23.340;2023-12-22T09:32:31;93930.69;;;4.78;100.00
39937;BME280;27803;42.740;23.340;2023-12-22T09:34:57;93928.09;;;4.78;100.00
39937;BME280;27803;42.740;23.340;2023-12-22T09:37:24;93921.53;;;4.82;100.00
39937;BME280;27803;42.740;23.340;2023-12-22T09:39:49;93940.28;;;4.84;100.00
39937;BME280;27803;42.740;23.340;2023-12-22T09:42:15;93929.31;;;4.89;100.00
39937;BME280;27803;42.740;23.340;2023-12-22T09:44:42;93921.94;;;4.86;100.00
39937;BME280;27803;42.740;23.340;2023-12-22T09:47:09;93935.88;;;4.92;100.00
39937;BME280;27803;42.740;23.340;2023-12-22T09:49:37;93923.53;;;5.07;100.00
39937;BME280;27803;42.740;23.340;2023-12-22T09:52:04;93913.38;;;5.12;100.00
39937;BME280;27803;42.740;23.340;2023-12-22T09:54:32;93874.13;;;4.95;100.00
39937;BME280;27803;42.740;23.340;2023-12-22T09:57:01;93905.56;;;5.32;100.00
39937;BME280;27803;42.740;23.340;2023-12-22T09:59:28;93907.53;;;5.36;100.00
39937;BME280;27803;42.740;23.340;2023-12-22T10:01:54;93886.41;;;5.46;100.00
39937;BME280;27803;42.740;23.340;2023-12-22T10:04:20;93898.75;;;5.44;100.00
39937;BME280;27803;42.740;23.340;2023-12-22T10:06:47;93913.91;;;5.47;100.00
39937;BME280;27803;42.740;23.340;2023-12-22T10:09:15;93871.13;;;5.18;100.00
39937;BME280;27803;42.740;23.340;2023-12-22T10:11:43;93894.34;;;5.57;100.00
39937;BME280;27803;42.740;23.340;2023-12-22T10:14:09;93891.75;;;5.57;100.00
39937;BME280;27803;42.740;23.340;2023-12-22T10:16:36;93859.66;;;5.52;100.00
39937;BME280;27803;42.740;23.340;2023-12-22T10:19:03;93880.38;;;5.65;100.00
39937;BME280;27803;42.740;23.340;2023-12-22T10:21:31;93885.91;;;5.82;100.00
39937;BME280;27803;42.740;23.340;2023-12-22T10:23:57;93893.69;;;5.82;100.00
39937;BME280;27803;42.740;23.340;2023-12-22T10:26:22;93874.69;;;6.01;100.00
39937;BME280;27803;42.740;23.340;2023-12-22T10:28:48;93866.41;;;6.17;100.00
39937;BME280;27803;42.740;23.340;2023-12-22T10:31:17;93834.41;;;5.92;100.00
39937;BME280;27803;42.740;23.340;2023-12-22T10:33:43;93864.53;;;6.31;100.00
39937;BME280;27803;42.740;23.340;2023-12-22T10:36:09;93869.88;;;6.43;100.00
39937;BME280;27803;42.740;23.340;2023-12-22T10:38:35;93861.66;;;6.46;100.00
39937;BME280;27803;42.740;23.340;2023-12-22T10:41:05;93871.22;;;6.52;100.00
39937;BME280;27803;42.740;23.340;2023-12-22T10:43:30;93846.00;;;6.59;100.00
39937;BME280;27803;42.740;23.340;2023-12-22T10:46:01;93831.25;;;6.53;100.00
39937;BME280;27803;42.740;23.340;2023-12-22T10:48:28;93794.91;;;6.53;100.00
39937;BME280;27803;42.740;23.340;2023-12-22T10:50:54;93838.94;;;6.66;100.00
39937;BME280;27803;42.740;23.340;2023-12-22T10:53:21;93815.31;;;6.49;100.00
39937;BME280;27803;42.740;23.340;2023-12-22T10:55:47;93853.53;;;6.67;100.00
39937;BME280;27803;42.740;23.340;2023-12-22T10:58:16;93838.63;;;6.81;100.00
39937;BME280;27803;42.740;23.340;2023-12-22T11:00:44;93817.16;;;6.67;100.00
39937;BME280;27803;42.740;23.340;2023-12-22T11:03:12;93832.06;;;6.78;100.00
39937;BME280;27803;42.740;23.340;2023-12-22T11:05:40;93837.00;;;6.87;100.00
39937;BME280;27803;42.740;23.340;2023-12-22T11:08:10;93810.31;;;6.48;100.00
39937;BME280;27803;42.740;23.340;2023-12-22T11:10:41;93811.13;;;6.73;100.00
39937;BME280;27803;42.740;23.340;2023-12-22T11:13:09;93799.09;;;6.79;100.00
39937;BME280;27803;42.740;23.340;2023-12-22T11:15:35;93808.13;;;6.95;100.00
39937;BME280;27803;42.740;23.340;2023-12-22T11:18:01;93788.34;;;7.12;100.00
39937;BME280;27803;42.740;23.340;2023-12-22T11:20:27;93795.66;;;7.40;100.00
39937;BME280;27803;42.740;23.340;2023-12-22T11:22:58;93796.91;;;7.37;100.00
39937;BME280;27803;42.740;23.340;2023-12-22T11:25:25;93799.13;;;7.34;100.00
39937;BME280;27803;42.740;23.340;2023-12-22T11:27:52;93800.50;;;7.36;100.00
39937;BME280;27803;42.740;23.340;2023-12-22T11:30:20;93802.81;;;7.44;100.00
39937;BME280;27803;42.740;23.340;2023-12-22T11:32:49;93822.75;;;7.50;100.00
39937;BME280;27803;42.740;23.340;2023-12-22T11:35:15;93812.06;;;7.40;100.00
39937;BME280;27803;42.740;23.340;2023-12-22T11:37:42;93822.09;;;7.18;100.00
39937;BME280;27803;42.740;23.340;2023-12-22T11:40:08;93807.31;;;6.94;100.00
39937;BME280;27803;42.740;23.340;2023-12-22T11:42:38;93841.78;;;7.08;100.00
39937;BME280;27803;42.740;23.340;2023-12-22T11:45:09;93865.44;;;7.00;100.00
39937;BME280;27803;42.740;23.340;2023-12-22T11:47:36;93842.91;;;6.94;100.00
39937;BME280;27803;42.740;23.340;2023-12-22T11:50:02;93843.34;;;6.91;100.00
39937;BME280;27803;42.740;23.340;2023-12-22T11:52:28;93847.69;;;6.97;100.00
39937;BME280;27803;42.740;23.340;2023-12-22T11:54:54;93849.25;;;6.98;100.00
39937;BME280;27803;42.740;23.340;2023-12-22T11:57:40;93830.81;;;7.06;100.00
39937;BME280;27803;42.740;23.340;2023-12-22T12:02:57;93828.72;;;7.14;100.00
39937;BME280;27803;42.740;23.340;2023-12-22T12:05:23;93831.84;;;7.23;100.00
39937;BME280;27803;42.740;23.340;2023-12-22T12:07:48;93829.75;;;7.32;100.00
39937;BME280;27803;42.740;23.340;2023-12-22T12:13:11;93846.91;;;7.58;100.00
39937;BME280;27803;42.740;23.340;2023-12-22T12:15:37;93858.31;;;7.57;100.00
39937;BME280;27803;42.740;23.340;2023-12-22T12:18:04;93853.03;;;7.63;100.00
39937;BME280;27803;42.740;23.340;2023-12-22T12:20:31;93839.38;;;7.68;100.00
39937;BME280;27803;42.740;23.340;2023-12-22T12:22:57;93834.25;;;7.61;100.00
39937;BME280;27803;42.740;23.340;2023-12-22T12:25:23;93827.88;;;7.75;100.00
39937;BME280;27803;42.740;23.340;2023-12-22T12:28:02;93823.63;;;7.81;100.00
39937;BME280;27803;42.740;23.340;2023-12-22T12:30:27;93820.72;;;7.71;100.00
39937;BME280;27803;42.740;23.340;2023-12-22T12:32:54;93823.19;;;7.66;100.00
39937;BME280;27803;42.740;23.340;2023-12-22T12:35:19;93828.97;;;7.68;100.00
39937;BME280;27803;42.740;23.340;2023-12-22T12:37:45;93822.19;;;7.67;100.00
39937;BME280;27803;42.740;23.340;2023-12-22T12:40:11;93821.75;;;7.70;100.00
39937;BME280;27803;42.740;23.340;2023-12-22T12:42:37;93792.13;;;7.53;100.00
39937;BME280;27803;42.740;23.340;2023-12-22T12:45:07;93820.44;;;7.61;100.00
39937;BME280;27803;42.740;23.340;2023-12-22T12:47:33;93833.59;;;7.47;100.00
39937;BME280;27803;42.740;23.340;2023-12-22T12:50:00;93823.34;;;7.53;100.00
39937;BME280;27803;42.740;23.340;2023-12-22T12:52:27;93827.69;;;7.59;100.00
39937;BME280;27803;42.740;23.340;2023-12-22T12:54:52;93831.56;;;7.49;100.00